createdAt,value
2023-01-26T00:01:54.167Z,101770.45
2023-01-26T00:04:22.649Z,101769.86
2023-01-26T00:06:50.935Z,101767.20
2023-01-26T00:09:19.206Z,101766.95
2023-01-26T00:11:47.483Z,101758.96
2023-01-26T00:14:15.552Z,101761.15
2023-01-26T00:16:44.032Z,101761.49
2023-01-26T00:19:12.415Z,101759.00
2023-01-26T00:21:40.723Z,101755.70
2023-01-26T00:24:09.195Z,101760.45
2023-01-26T00:26:37.350Z,101758.96
2023-01-26T00:29:05.518Z,101757.13
2023-01-26T00:31:34.216Z,101760.53
2023-01-26T00:34:02.798Z,101757.65
2023-01-26T00:36:30.801Z,101754.40
2023-01-26T00:38:58.934Z,101754.45
2023-01-26T00:41:45.845Z,101758.27
2023-01-26T00:44:15.161Z,101758.70
2023-01-26T00:46:43.574Z,101756.02
2023-01-26T00:49:12.030Z,101756.48
2023-01-26T00:51:40.493Z,101750.77
2023-01-26T00:54:08.666Z,101749.39
2023-01-26T00:56:37.143Z,101748.21
2023-01-26T00:59:06.445Z,101745.77
2023-01-26T01:01:35.380Z,101746.83
2023-01-26T01:04:03.819Z,101744.92
2023-01-26T01:06:32.196Z,101737.20
2023-01-26T01:09:00.885Z,101735.02
2023-01-26T01:11:29.481Z,101728.17
2023-01-26T01:13:59.079Z,101727.57
2023-01-26T01:16:28.850Z,101725.45
2023-01-26T01:18:58.505Z,101725.27
2023-01-26T01:21:26.981Z,101731.11
2023-01-26T01:23:55.172Z,101736.41
2023-01-26T01:26:24.149Z,101734.34
2023-01-26T01:28:56.418Z,101731.23
2023-01-26T01:31:26.275Z,101730.58
2023-01-26T01:33:54.545Z,101731.70
2023-01-26T01:36:23.730Z,101731.91
2023-01-26T01:38:52.904Z,101725.80
2023-01-26T01:41:23.122Z,101721.80
2023-01-26T01:43:51.809Z,101715.70
2023-01-26T01:46:45.541Z,101710.58
2023-01-26T01:49:24.408Z,101712.79
2023-01-26T01:51:55.974Z,101713.01
2023-01-26T01:54:35.809Z,101703.98
2023-01-26T01:57:15.914Z,101698.32
2023-01-26T01:59:54.925Z,101694.02
2023-01-26T02:02:23.480Z,101693.15
2023-01-26T02:04:52.164Z,101694.38
2023-01-26T02:07:21.602Z,101690.54
2023-01-26T02:10:10.622Z,101685.20
2023-01-26T02:12:39.523Z,101676.36
2023-01-26T02:15:08.782Z,101673.45
2023-01-26T02:17:37.712Z,101675.73
2023-01-26T02:20:18.895Z,101671.40
2023-01-26T02:23:11.336Z,101664.98
2023-01-26T02:25:54.151Z,101660.73
2023-01-26T02:28:26.229Z,101657.88
2023-01-26T02:30:56.255Z,101660.84
2023-01-26T02:33:27.180Z,101656.28
2023-01-26T02:35:58.225Z,101653.54
2023-01-26T02:38:31.189Z,101651.05
2023-01-26T02:41:04.912Z,101654.92
2023-01-26T02:43:33.798Z,101648.90
2023-01-26T02:46:02.121Z,101643.98
2023-01-26T02:48:49.397Z,101634.88
2023-01-26T02:51:17.674Z,101631.16
2023-01-26T02:53:48.004Z,101632.86
2023-01-26T02:56:16.175Z,101636.17
2023-01-26T02:58:44.560Z,101640.51
2023-01-26T03:01:13.406Z,101639.13
2023-01-26T03:03:48.274Z,101640.97
2023-01-26T03:06:16.862Z,101647.52
2023-01-26T03:08:44.928Z,101644.34
2023-01-26T03:11:13.104Z,101639.22
2023-01-26T03:13:41.485Z,101636.69
2023-01-26T03:16:10.517Z,101635.24
2023-01-26T03:18:58.007Z,101633.25
2023-01-26T03:21:44.919Z,101629.15
2023-01-26T03:24:34.706Z,101631.36
2023-01-26T03:27:28.072Z,101628.49
2023-01-26T03:29:59.489Z,101623.42
2023-01-26T03:32:28.005Z,101623.61
2023-01-26T03:34:58.836Z,101613.94
2023-01-26T03:37:27.117Z,101616.44
2023-01-26T03:40:25.902Z,101612.62
2023-01-26T03:43:12.862Z,101602.30
2023-01-26T03:46:00.959Z,101599.64
2023-01-26T03:48:48.587Z,101591.65
2023-01-26T03:51:35.958Z,101585.21
2023-01-26T03:54:23.752Z,101582.59
2023-01-26T03:56:52.637Z,101581.14
2023-01-26T03:59:38.379Z,101582.50
2023-01-26T04:02:31.509Z,101578.75
2023-01-26T04:05:19.427Z,101572.51
2023-01-26T04:08:09.613Z,101567.23
2023-01-26T04:10:38.197Z,101564.16
2023-01-26T04:13:25.728Z,101559.32
2023-01-26T04:16:18.219Z,101551.15
2023-01-26T04:19:06.116Z,101551.54
2023-01-26T04:21:36.123Z,101549.42
2023-01-26T04:24:17.269Z,101542.70
2023-01-26T04:26:47.016Z,101539.73
2023-01-26T04:29:19.384Z,101534.23
2023-01-26T04:31:48.758Z,101532.21
2023-01-26T04:34:22.392Z,101531.94
2023-01-26T04:36:50.873Z,101536.61
2023-01-26T04:39:20.990Z,101533.02
2023-01-26T04:41:52.748Z,101533.92
2023-01-26T04:44:21.743Z,101531.52
2023-01-26T04:46:50.579Z,101528.59
2023-01-26T04:49:19.839Z,101526.08
2023-01-26T04:51:48.831Z,101524.79
2023-01-26T04:54:17.923Z,101521.25
2023-01-26T04:56:46.811Z,101531.30
2023-01-26T04:59:15.396Z,101529.93
2023-01-26T05:01:44.595Z,101534.04
2023-01-26T05:04:15.660Z,101530.38
2023-01-26T05:06:47.711Z,101528.36
2023-01-26T05:09:17.205Z,101523.31
2023-01-26T05:11:49.783Z,101518.95
2023-01-26T05:14:38.541Z,101515.60
2023-01-26T05:17:42.251Z,101513.95
2023-01-26T05:20:33.059Z,101517.11
2023-01-26T05:23:15.678Z,101514.16
2023-01-26T05:26:02.785Z,101514.25
2023-01-26T05:28:35.362Z,101517.64
2023-01-26T05:31:03.888Z,101518.55
2023-01-26T05:33:32.300Z,101516.73
2023-01-26T05:36:05.792Z,101518.84
2023-01-26T05:38:35.437Z,101517.81
2023-01-26T05:41:03.751Z,101520.21
2023-01-26T05:43:39.461Z,101514.16
2023-01-26T05:46:16.875Z,101513.50
2023-01-26T05:48:45.437Z,101514.06
2023-01-26T05:51:13.611Z,101513.84
2023-01-26T05:53:42.193Z,101514.56
2023-01-26T05:56:13.962Z,101510.25
2023-01-26T05:58:49.213Z,101510.48
2023-01-26T06:01:19.835Z,101511.80
2023-01-26T06:03:51.786Z,101509.38
2023-01-26T06:06:20.267Z,101508.66
2023-01-26T06:08:53.366Z,101506.74
2023-01-26T06:11:42.116Z,101502.01
2023-01-26T06:14:20.937Z,101497.88
2023-01-26T06:16:49.357Z,101494.02
2023-01-26T06:19:17.799Z,101492.48
2023-01-26T06:21:50.377Z,101495.52
2023-01-26T06:24:19.099Z,101497.66
2023-01-26T06:26:49.485Z,101498.55
2023-01-26T06:29:19.101Z,101494.73
2023-01-26T06:31:47.569Z,101496.81
2023-01-26T06:34:16.065Z,101493.58
2023-01-26T06:36:44.855Z,101493.81
2023-01-26T06:39:20.001Z,101493.75
2023-01-26T06:41:48.802Z,101501.60
2023-01-26T06:44:17.157Z,101501.93
2023-01-26T06:46:46.150Z,101501.48
2023-01-26T06:49:17.088Z,101501.73
2023-01-26T06:51:56.320Z,101503.56
2023-01-26T06:54:33.301Z,101493.52
2023-01-26T06:57:23.603Z,101489.98
2023-01-26T06:59:58.610Z,101486.64
2023-01-26T07:02:47.181Z,101485.23
2023-01-26T07:05:15.972Z,101490.09
2023-01-26T07:07:44.357Z,101484.86
2023-01-26T07:10:13.179Z,101490.09
2023-01-26T07:12:45.926Z,101489.63
2023-01-26T07:15:15.129Z,101483.54
2023-01-26T07:17:43.615Z,101483.83
2023-01-26T07:20:12.129Z,101481.70
2023-01-26T07:22:40.563Z,101478.94
2023-01-26T07:25:09.046Z,101474.33
2023-01-26T07:27:37.218Z,101468.02
2023-01-26T07:30:05.905Z,101462.35
2023-01-26T07:32:34.391Z,101458.69
2023-01-26T07:35:05.231Z,101456.36
2023-01-26T07:37:33.724Z,101457.30
2023-01-26T07:40:02.546Z,101453.15
2023-01-26T07:42:32.411Z,101454.75
2023-01-26T07:45:19.748Z,101445.49
2023-01-26T07:47:48.420Z,101443.73
2023-01-26T07:50:16.812Z,101444.73
2023-01-26T07:52:45.080Z,101445.42
2023-01-26T07:55:13.558Z,101448.36
2023-01-26T07:57:41.832Z,101449.77
2023-01-26T08:00:12.173Z,101450.83
2023-01-26T08:02:41.183Z,101451.05
2023-01-26T08:05:10.246Z,101448.79
2023-01-26T08:07:38.733Z,101443.73
2023-01-26T08:10:07.793Z,101439.38
2023-01-26T08:12:39.559Z,101441.67
2023-01-26T08:15:11.171Z,101441.01
2023-01-26T08:17:39.412Z,101436.64
2023-01-26T08:20:09.272Z,101432.48
2023-01-26T08:22:38.322Z,101429.70
2023-01-26T08:25:07.417Z,101430.36
2023-01-26T08:27:36.006Z,101418.61
2023-01-26T08:30:05.305Z,101420.08
2023-01-26T08:32:35.120Z,101411.23
2023-01-26T08:35:03.803Z,101414.36
2023-01-26T08:37:32.078Z,101414.28
2023-01-26T08:40:00.564Z,101415.77
2023-01-26T08:42:29.077Z,101417.27
2023-01-26T08:44:57.218Z,101420.05
2023-01-26T08:47:25.593Z,101413.38
2023-01-26T08:49:54.485Z,101420.23
2023-01-26T08:52:22.667Z,101417.95
2023-01-26T08:54:51.140Z,101408.23
2023-01-26T08:57:19.628Z,101405.74
2023-01-26T08:59:48.113Z,101404.52
2023-01-26T09:02:16.852Z,101402.23
2023-01-26T09:04:45.482Z,101405.13
2023-01-26T09:07:13.956Z,101404.84
2023-01-26T09:09:42.628Z,101403.27
2023-01-26T09:12:11.740Z,101399.45
2023-01-26T09:14:41.369Z,101392.34
2023-01-26T09:17:09.538Z,101385.41
2023-01-26T09:19:38.003Z,101386.33
2023-01-26T09:22:06.741Z,101388.71
2023-01-26T09:24:35.274Z,101383.38
2023-01-26T09:27:03.672Z,101376.48
2023-01-26T09:29:31.831Z,101363.52
2023-01-26T09:32:00.596Z,101353.58
2023-01-26T09:34:29.200Z,101344.67
2023-01-26T09:36:57.376Z,101336.37
2023-01-26T09:39:26.062Z,101333.21
2023-01-26T09:42:12.568Z,101331.50
2023-01-26T09:45:10.711Z,101330.29
2023-01-26T09:47:42.398Z,101323.75
2023-01-26T09:50:19.479Z,101321.57
2023-01-26T09:52:57.490Z,101315.39
2023-01-26T09:55:27.811Z,101304.28
2023-01-26T09:58:03.365Z,101293.70
2023-01-26T10:00:44.741Z,101301.05
2023-01-26T10:03:44.256Z,101294.58
2023-01-26T10:06:29.895Z,101294.84
2023-01-26T10:09:33.412Z,101289.42
2023-01-26T10:12:07.008Z,101282.08
2023-01-26T10:14:45.572Z,101276.96
2023-01-26T10:17:20.286Z,101275.63
2023-01-26T10:19:54.623Z,101277.94
2023-01-26T10:22:38.547Z,101275.69
2023-01-26T10:25:37.544Z,101269.23
2023-01-26T10:28:17.192Z,101269.70
2023-01-26T10:30:48.211Z,101269.64
2023-01-26T10:33:19.679Z,101269.53
2023-01-26T10:35:48.364Z,101270.31
2023-01-26T10:38:35.488Z,101262.08
2023-01-26T10:41:06.953Z,101258.21
2023-01-26T10:43:42.115Z,101256.97
2023-01-26T10:46:36.604Z,101248.39
2023-01-26T10:49:17.540Z,101245.73
2023-01-26T10:52:05.423Z,101243.55
2023-01-26T10:54:35.636Z,101232.39
2023-01-26T10:57:17.706Z,101227.59
2023-01-26T11:00:01.347Z,101224.96
2023-01-26T11:02:31.822Z,101215.98
2023-01-26T11:05:09.703Z,101207.84
2023-01-26T11:07:41.430Z,101208.55
2023-01-26T11:10:27.323Z,101205.00
2023-01-26T11:13:17.863Z,101204.27
2023-01-26T11:15:49.335Z,101202.67
2023-01-26T11:18:23.886Z,101201.98
2023-01-26T11:20:56.775Z,101199.13
2023-01-26T11:23:54.283Z,101198.08
2023-01-26T11:26:48.011Z,101196.88
2023-01-26T11:29:44.238Z,101192.74
2023-01-26T11:32:12.413Z,101184.64
2023-01-26T11:34:53.287Z,101176.23
2023-01-26T11:37:43.990Z,101173.67
2023-01-26T11:40:18.447Z,101167.34
2023-01-26T11:43:07.164Z,101162.64
2023-01-26T11:45:38.404Z,101150.41
2023-01-26T11:48:06.491Z,101144.05
2023-01-26T11:51:00.668Z,101140.71
2023-01-26T11:54:14.133Z,101139.55
2023-01-26T11:57:04.821Z,101133.11
2023-01-26T11:59:41.522Z,101136.03
2023-01-26T12:02:37.577Z,101128.66
2023-01-26T12:05:24.218Z,101128.92
2023-01-26T12:08:15.634Z,101131.52
2023-01-26T12:10:59.383Z,101125.91
2023-01-26T12:13:38.403Z,101117.90
2023-01-26T12:16:18.624Z,101109.31
2023-01-26T12:19:11.449Z,101112.09
2023-01-26T12:21:44.579Z,101107.02
2023-01-26T12:24:46.757Z,101099.50
2023-01-26T12:27:19.910Z,101092.81
2023-01-26T12:30:01.891Z,101095.61
2023-01-26T12:32:30.241Z,101093.33
2023-01-26T12:34:59.439Z,101090.33
2023-01-26T12:38:08.677Z,101085.95
2023-01-26T12:41:38.086Z,101076.88
2023-01-26T12:44:28.155Z,101071.63
2023-01-26T12:47:07.820Z,101073.52
2023-01-26T12:49:45.271Z,101070.42
2023-01-26T12:52:23.213Z,101058.85
2023-01-26T12:55:03.991Z,101057.25
2023-01-26T12:57:50.419Z,101054.70
2023-01-26T13:00:26.023Z,101052.19
2023-01-26T13:03:21.351Z,101045.08
2023-01-26T13:05:55.562Z,101043.27
2023-01-26T13:08:32.857Z,101040.70
2023-01-26T13:11:09.244Z,101039.85
2023-01-26T13:13:54.387Z,101040.09
2023-01-26T13:16:25.641Z,101038.09
2023-01-26T13:18:58.519Z,101040.14
2023-01-26T13:21:35.834Z,101031.32
2023-01-26T13:24:24.098Z,101033.23
2023-01-26T13:26:58.880Z,101032.09
2023-01-26T13:29:32.143Z,101035.38
2023-01-26T13:32:10.603Z,101032.13
2023-01-26T13:34:45.240Z,101031.67
2023-01-26T13:37:37.249Z,101028.52
2023-01-26T13:40:15.684Z,101027.27
2023-01-26T13:43:20.692Z,101022.05
2023-01-26T13:46:09.362Z,101022.73
2023-01-26T13:48:47.160Z,101019.48
2023-01-26T13:51:22.504Z,101022.08
2023-01-26T13:54:12.083Z,101017.80
2023-01-26T13:56:42.852Z,101014.47
2023-01-26T13:59:23.125Z,101007.16
2023-01-26T14:01:54.976Z,101003.21
2023-01-26T14:04:27.931Z,100999.56
2023-01-26T14:07:03.228Z,100992.10
2023-01-26T14:09:36.641Z,100989.95
2023-01-26T14:12:08.602Z,100987.05
2023-01-26T14:14:37.957Z,100988.17
2023-01-26T14:17:28.005Z,100989.73
2023-01-26T14:19:57.627Z,100982.20
2023-01-26T14:22:27.360Z,100980.77
2023-01-26T14:24:56.118Z,100973.64
2023-01-26T14:27:24.902Z,100968.54
2023-01-26T14:29:53.182Z,100969.63
2023-01-26T14:32:25.670Z,100967.91
2023-01-26T14:34:59.988Z,100966.67
2023-01-26T14:37:29.176Z,100963.30
2023-01-26T14:40:21.734Z,100959.00
2023-01-26T14:42:52.557Z,100955.92
2023-01-26T14:45:31.903Z,100952.70
2023-01-26T14:48:04.571Z,100954.34
2023-01-26T14:50:34.076Z,100954.15
2023-01-26T14:53:04.268Z,100952.91
2023-01-26T14:55:36.598Z,100953.04
2023-01-26T14:58:16.820Z,100947.95
2023-01-26T15:00:49.545Z,100946.65
2023-01-26T15:03:33.766Z,100942.98
2023-01-26T15:06:15.463Z,100943.98
2023-01-26T15:09:16.194Z,100941.16
2023-01-26T15:12:12.012Z,100939.59
2023-01-26T15:14:46.753Z,100935.83
2023-01-26T15:18:00.792Z,100931.91
2023-01-26T15:20:31.729Z,100925.95
2023-01-26T15:23:00.212Z,100926.73
2023-01-26T15:25:31.907Z,100925.74
2023-01-26T15:28:01.478Z,100923.75
2023-01-26T15:30:33.366Z,100923.43
2023-01-26T15:33:02.501Z,100916.42
2023-01-26T15:35:33.262Z,100911.40
2023-01-26T15:38:04.391Z,100906.83
2023-01-26T15:40:32.802Z,100902.77
2023-01-26T15:43:17.650Z,100903.08
2023-01-26T15:45:54.652Z,100907.14
2023-01-26T15:48:24.654Z,100906.64
2023-01-26T15:50:53.448Z,100912.45
2023-01-26T15:53:23.088Z,100911.27
2023-01-26T15:55:58.794Z,100916.56
2023-01-26T15:58:28.922Z,100914.50
2023-01-26T16:00:58.343Z,100912.63
2023-01-26T16:03:26.658Z,100907.50
2023-01-26T16:05:55.285Z,100902.73
2023-01-26T16:08:23.770Z,100906.48
2023-01-26T16:10:52.248Z,100903.16
2023-01-26T16:13:20.527Z,100904.35
2023-01-26T16:15:51.419Z,100903.62
2023-01-26T16:18:20.767Z,100906.38
2023-01-26T16:20:49.765Z,100909.77
2023-01-26T16:23:28.309Z,100907.55
2023-01-26T16:25:56.554Z,100907.91
2023-01-26T16:28:24.835Z,100906.08
2023-01-26T16:30:53.268Z,100904.20
2023-01-26T16:33:21.793Z,100906.27
2023-01-26T16:35:50.282Z,100905.69
2023-01-26T16:38:18.653Z,100902.30
2023-01-26T16:40:48.793Z,100897.72
2023-01-26T16:43:21.394Z,100889.25
2023-01-26T16:45:51.487Z,100887.95
2023-01-26T16:48:20.878Z,100888.48
2023-01-26T16:50:53.983Z,100878.27
2023-01-26T16:53:29.079Z,100876.00
2023-01-26T16:55:57.593Z,100868.83
2023-01-26T16:58:26.800Z,100871.50
2023-01-26T17:00:55.638Z,100872.09
2023-01-26T17:03:24.351Z,100870.63
2023-01-26T17:05:53.457Z,100870.33
2023-01-26T17:08:22.537Z,100867.26
2023-01-26T17:11:01.448Z,100860.49
2023-01-26T17:13:34.869Z,100861.08
2023-01-26T17:16:04.162Z,100856.94
2023-01-26T17:18:33.683Z,100861.33
2023-01-26T17:21:03.183Z,100859.10
2023-01-26T17:23:31.664Z,100852.45
2023-01-26T17:26:00.550Z,100847.73
2023-01-26T17:28:29.354Z,100838.80
2023-01-26T17:31:00.824Z,100841.74
2023-01-26T17:33:30.305Z,100837.45
2023-01-26T17:36:03.188Z,100833.92
2023-01-26T17:38:31.871Z,100839.40
2023-01-26T17:41:00.484Z,100843.11
2023-01-26T17:43:29.770Z,100842.43
2023-01-26T17:46:08.299Z,100840.64
2023-01-26T17:48:40.461Z,100846.66
2023-01-26T17:51:10.914Z,100843.30
2023-01-26T17:53:40.633Z,100845.47
2023-01-26T17:56:13.280Z,100846.89
2023-01-26T17:58:41.855Z,100839.69
2023-01-26T18:01:10.810Z,100834.59
2023-01-26T18:03:43.447Z,100833.31
2023-01-26T18:06:13.037Z,100828.97
2023-01-26T18:08:41.515Z,100824.65
2023-01-26T18:11:12.829Z,100822.85
2023-01-26T18:13:41.847Z,100819.40
2023-01-26T18:16:13.130Z,100812.88
2023-01-26T18:18:42.494Z,100806.09
2023-01-26T18:21:17.091Z,100804.34
2023-01-26T18:23:56.498Z,100801.83
2023-01-26T18:26:26.622Z,100795.71
2023-01-26T18:28:55.543Z,100799.02
2023-01-26T18:31:31.344Z,100796.41
2023-01-26T18:34:01.560Z,100795.59
2023-01-26T18:36:30.706Z,100787.44
2023-01-26T18:39:01.520Z,100784.69
2023-01-26T18:41:30.775Z,100786.16
2023-01-26T18:44:01.202Z,100778.49
2023-01-26T18:46:31.414Z,100779.61
2023-01-26T18:49:03.826Z,100783.28
2023-01-26T18:51:35.285Z,100774.92
2023-01-26T18:54:04.441Z,100770.17
2023-01-26T18:56:33.824Z,100771.30
2023-01-26T18:59:02.337Z,100771.89
2023-01-26T19:01:31.362Z,100774.57
2023-01-26T19:04:02.107Z,100767.33
2023-01-26T19:06:32.798Z,100765.05
2023-01-26T19:09:04.511Z,100774.41
2023-01-26T19:11:38.056Z,100766.37
2023-01-26T19:14:08.373Z,100762.20
2023-01-26T19:16:37.109Z,100758.85
2023-01-26T19:19:05.647Z,100762.62
2023-01-26T19:21:34.355Z,100765.10
2023-01-26T19:24:06.156Z,100764.93
2023-01-26T19:26:35.193Z,100757.88
2023-01-26T19:29:05.818Z,100753.73
2023-01-26T19:31:35.573Z,100759.15
2023-01-26T19:34:06.368Z,100761.08
2023-01-26T19:36:36.967Z,100760.64
2023-01-26T19:39:06.507Z,100757.92
2023-01-26T19:41:35.321Z,100754.84
2023-01-26T19:44:03.567Z,100753.66
2023-01-26T19:46:32.564Z,100753.00
2023-01-26T19:49:00.940Z,100741.30
2023-01-26T19:51:29.776Z,100737.96
2023-01-26T19:53:59.307Z,100726.96
2023-01-26T19:56:30.409Z,100719.48
2023-01-26T19:59:02.003Z,100713.86
2023-01-26T20:01:31.581Z,100714.27
2023-01-26T20:04:09.512Z,100707.10
2023-01-26T20:06:38.335Z,100699.73
2023-01-26T20:09:07.957Z,100702.16
2023-01-26T20:11:36.330Z,100699.61
2023-01-26T20:14:09.014Z,100704.61
2023-01-26T20:16:37.808Z,100699.59
2023-01-26T20:19:07.101Z,100702.78
2023-01-26T20:21:35.803Z,100697.48
2023-01-26T20:24:06.024Z,100685.87
2023-01-26T20:26:35.739Z,100672.28
2023-01-26T20:29:05.837Z,100665.34
2023-01-26T20:31:34.264Z,100663.60
2023-01-26T20:34:03.104Z,100654.80
2023-01-26T20:36:33.333Z,100650.00
2023-01-26T20:39:01.712Z,100644.59
2023-01-26T20:41:31.771Z,100647.56
2023-01-26T20:44:04.484Z,100644.44
2023-01-26T20:46:40.780Z,100646.23
2023-01-26T20:49:13.142Z,100635.52
2023-01-26T20:51:42.891Z,100633.14
2023-01-26T20:54:14.107Z,100618.82
2023-01-26T20:56:43.105Z,100618.45
2023-01-26T20:59:12.191Z,100616.33
2023-01-26T21:01:40.503Z,100609.54
2023-01-26T21:04:08.952Z,100609.96
2023-01-26T21:06:38.501Z,100619.52
2023-01-26T21:09:06.934Z,100616.69
2023-01-26T21:11:36.339Z,100614.48
2023-01-26T21:14:05.329Z,100610.40
2023-01-26T21:16:35.866Z,100610.35
2023-01-26T21:19:04.347Z,100601.79
2023-01-26T21:21:33.131Z,100602.23
2023-01-26T21:24:01.462Z,100601.07
2023-01-26T21:26:30.317Z,100594.71
2023-01-26T21:29:00.208Z,100588.55
2023-01-26T21:31:30.958Z,100594.13
2023-01-26T21:34:00.680Z,100588.60
2023-01-26T21:36:31.045Z,100582.83
2023-01-26T21:39:01.809Z,100581.95
2023-01-26T21:41:52.840Z,100581.44
2023-01-26T21:44:59.298Z,100573.36
2023-01-26T21:47:27.983Z,100565.14
2023-01-26T21:49:58.829Z,100562.87
2023-01-26T21:52:45.632Z,100556.30
2023-01-26T21:55:14.018Z,100548.02
2023-01-26T21:58:00.520Z,100544.00
2023-01-26T22:00:31.020Z,100536.04
2023-01-26T22:03:00.919Z,100528.80
2023-01-26T22:05:29.139Z,100524.73
2023-01-26T22:07:57.208Z,100517.39
2023-01-26T22:10:25.796Z,100521.48
2023-01-26T22:12:53.965Z,100524.59
2023-01-26T22:15:22.344Z,100517.70
2023-01-26T22:17:50.428Z,100510.19
2023-01-26T22:20:18.899Z,100503.90
2023-01-26T22:22:47.588Z,100496.71
2023-01-26T22:25:16.167Z,100497.98
2023-01-26T22:27:44.669Z,100495.71
2023-01-26T22:30:14.306Z,100487.71
2023-01-26T22:32:43.263Z,100480.77
2023-01-26T22:35:11.629Z,100474.27
2023-01-26T22:37:39.810Z,100471.76
2023-01-26T22:40:09.151Z,100466.77
2023-01-26T22:42:37.385Z,100459.84
2023-01-26T22:45:06.919Z,100455.52
2023-01-26T22:47:35.982Z,100448.35
2023-01-26T22:50:05.581Z,100439.85
2023-01-26T22:52:34.276Z,100429.78
2023-01-26T22:55:03.169Z,100428.80
2023-01-26T22:57:31.558Z,100421.73
2023-01-26T22:59:59.824Z,100418.30
2023-01-26T23:02:28.206Z,100417.78
2023-01-26T23:04:56.908Z,100423.60
2023-01-26T23:07:25.582Z,100425.97
2023-01-26T23:09:53.900Z,100433.14
2023-01-26T23:12:22.539Z,100433.70
2023-01-26T23:14:50.814Z,100430.67
2023-01-26T23:17:19.193Z,100438.46
2023-01-26T23:19:47.471Z,100428.08
2023-01-26T23:22:15.646Z,100428.20
2023-01-26T23:25:04.607Z,100421.19
2023-01-26T23:27:32.679Z,100429.31
2023-01-26T23:30:03.066Z,100432.64
2023-01-26T23:32:31.729Z,100440.32
2023-01-26T23:35:00.156Z,100447.97
2023-01-26T23:37:28.320Z,100458.00
2023-01-26T23:39:57.861Z,100448.66
2023-01-26T23:42:26.128Z,100439.38
2023-01-26T23:44:54.506Z,100424.67
2023-01-26T23:47:22.787Z,100413.75
2023-01-26T23:49:50.957Z,100406.21
2023-01-26T23:52:19.012Z,100397.30
2023-01-26T23:54:47.412Z,100393.11
2023-01-26T23:57:15.484Z,100388.50
2023-01-26T23:59:44.005Z,100390.05
